< Cyclone 198703 1987 Season Cyclone 198705 >
Cyclone 198704 (JASON)
General InformationTrack Information on Google MapsDetailed Wind InformationList of All Images || ResourceGoogle EarthGE AnimationAtom FeedGeoJSON
Detalied Best Track (Time Zone = UTC)
Year Month Day Hour Lat. Long. Pressure (hPa) Wind (kt) Class Image Chart
1987 2 5 18 -11.9 142.8 1002 25 2 Image --
1987 2 6 00 -11.9 142.3 1001 25 2 Image --
1987 2 6 06 -12.2 142.1 999 25 2 Image --
1987 2 6 12 -12.3 141.8 999 25 2 Image --
1987 2 6 18 -12.5 140.8 997 30 2 Image --
1987 2 7 00 -12.5 140.0 991 40 3 Image --
1987 2 7 06 -12.5 139.7 987 45 3 Image --
1987 2 7 12 -12.8 139.2 985 45 3 Image --
1987 2 7 18 -13.0 138.5 983 50 4 Image --
1987 2 8 00 -13.1 138.2 982 50 4 Image --
1987 2 8 06 -13.3 137.8 980 55 4 Image --
1987 2 8 12 -13.3 137.4 975 55 4 Image --
1987 2 8 18 -13.0 136.9 975 60 4 Image --
1987 2 8 21 -12.7 136.8 975 60 4 Image --
1987 2 9 00 -12.8 136.8 977 60 4 Image --
1987 2 9 06 -12.9 136.7 980 55 4 Image --
1987 2 9 12 -12.9 136.2 984 50 4 Image --
1987 2 9 18 -12.5 135.9 985 50 4 Image --
1987 2 10 00 -12.5 136.1 990 45 3 Image --
1987 2 10 06 -12.7 136.2 990 35 3 Image --
1987 2 10 12 -13.0 136.2 992 35 3 Image --
1987 2 10 18 -13.2 136.2 992 35 3 Image --
1987 2 11 00 -13.5 136.3 992 40 3 Image --
1987 2 11 06 -13.9 136.4 990 50 4 Image --
1987 2 11 12 -13.9 136.7 990 50 4 Image --
1987 2 11 18 -13.9 137.3 990 50 4 Image --
1987 2 12 00 -14.1 137.8 980 60 4 Image --
1987 2 12 06 -14.9 138.2 970 60 4 Image --
1987 2 12 12 -15.5 138.9 970 65 5 Image --
1987 2 12 18 -15.8 139.4 970 70 5 Image --
1987 2 13 00 -16.5 139.8 970 75 5 Image --
1987 2 13 06 -17.7 139.9 980 70 5 Image --
1987 2 13 12 -19.1 139.7 996 40 3 Image --
1987 2 13 18 -19.9 139.5 998 30 2 Image --
1987 2 14 00 -21.0 139.4 1001 25 2 Image --
< Cyclone 198703 1987 Season Cyclone 198705 >

Help